sensor_id;sensor_type;location;lat;lon;timestamp;pressure;altitude;pressure_sealevel;temperature;humidity
55604;BME280;41468;48.838;9.330;2023-06-10T00:02:02;97913.97;;;18.45;67.50
55604;BME280;41468;48.838;9.330;2023-06-10T00:04:30;97914.22;;;18.50;66.69
55604;BME280;41468;48.838;9.330;2023-06-10T00:23:00;97914.31;;;18.47;66.84
55604;BME280;41468;48.838;9.330;2023-06-10T00:25:34;97916.06;;;18.57;64.65
55604;BME280;41468;48.838;9.330;2023-06-10T00:28:07;97911.66;;;18.43;67.56
55604;BME280;41468;48.838;9.330;2023-06-10T00:30:40;97908.19;;;18.39;67.93
55604;BME280;41468;48.838;9.330;2023-06-10T00:33:12;97912.66;;;18.33;67.81
55604;BME280;41468;48.838;9.330;2023-06-10T00:35:45;97912.56;;;18.37;68.25
55604;BME280;41468;48.838;9.330;2023-06-10T00:38:18;97903.34;;;18.27;66.65
55604;BME280;41468;48.838;9.330;2023-06-10T00:40:51;97908.88;;;18.43;65.19
55604;BME280;41468;48.838;9.330;2023-06-10T00:43:24;97909.66;;;18.44;66.43
55604;BME280;41468;48.838;9.330;2023-06-10T00:45:57;97914.75;;;18.45;66.17
55604;BME280;41468;48.838;9.330;2023-06-10T00:48:30;97913.81;;;18.68;64.31
55604;BME280;41468;48.838;9.330;2023-06-10T00:51:04;97910.72;;;18.83;63.36
55604;BME280;41468;48.838;9.330;2023-06-10T00:53:39;97918.09;;;18.89;63.03
55604;BME280;41468;48.838;9.330;2023-06-10T00:56:13;97913.72;;;18.72;64.87
55604;BME280;41468;48.838;9.330;2023-06-10T00:58:47;97903.63;;;18.49;66.79
55604;BME280;41468;48.838;9.330;2023-06-10T01:01:20;97903.50;;;18.36;67.38
55604;BME280;41468;48.838;9.330;2023-06-10T01:03:53;97901.53;;;18.37;67.21
55604;BME280;41468;48.838;9.330;2023-06-10T01:06:41;97903.56;;;18.16;68.09
55604;BME280;41468;48.838;9.330;2023-06-10T01:09:25;97909.88;;;18.17;69.47
55604;BME280;41468;48.838;9.330;2023-06-10T01:14:27;97914.06;;;18.05;70.52
55604;BME280;41468;48.838;9.330;2023-06-10T01:16:54;97913.59;;;17.90;70.12
55604;BME280;41468;48.838;9.330;2023-06-10T01:19:21;97902.91;;;17.92;69.91
55604;BME280;41468;48.838;9.330;2023-06-10T01:21:51;97904.72;;;17.99;69.65
55604;BME280;41468;48.838;9.330;2023-06-10T01:24:18;97903.09;;;18.01;69.41
55604;BME280;41468;48.838;9.330;2023-06-10T01:26:48;97897.38;;;17.92;69.97
55604;BME280;41468;48.838;9.330;2023-06-10T01:29:23;97906.66;;;17.82;70.75
55604;BME280;41468;48.838;9.330;2023-06-10T01:32:04;97905.91;;;17.78;70.70
55604;BME280;41468;48.838;9.330;2023-06-10T01:34:33;97901.69;;;17.93;69.60
55604;BME280;41468;48.838;9.330;2023-06-10T01:37:03;97909.16;;;17.73;71.43
55604;BME280;41468;48.838;9.330;2023-06-10T01:39:31;97913.75;;;17.59;71.23
55604;BME280;41468;48.838;9.330;2023-06-10T01:41:59;97914.34;;;17.71;71.16
55604;BME280;41468;48.838;9.330;2023-06-10T01:44:27;97911.44;;;17.58;71.98
55604;BME280;41468;48.838;9.330;2023-06-10T01:46:54;97914.69;;;17.73;71.59
55604;BME280;41468;48.838;9.330;2023-06-10T01:49:21;97909.06;;;17.80;70.86
55604;BME280;41468;48.838;9.330;2023-06-10T01:51:50;97918.47;;;17.62;71.44
55604;BME280;41468;48.838;9.330;2023-06-10T01:54:17;97907.25;;;17.50;72.70
55604;BME280;41468;48.838;9.330;2023-06-10T01:56:44;97908.41;;;17.52;72.75
55604;BME280;41468;48.838;9.330;2023-06-10T01:59:10;97910.66;;;17.57;72.36
55604;BME280;41468;48.838;9.330;2023-06-10T02:01:37;97910.63;;;17.37;73.32
55604;BME280;41468;48.838;9.330;2023-06-10T02:04:04;97916.94;;;17.38;73.29
55604;BME280;41468;48.838;9.330;2023-06-10T02:06:31;97912.97;;;17.39;72.97
55604;BME280;41468;48.838;9.330;2023-06-10T02:08:58;97914.03;;;17.45;72.22
55604;BME280;41468;48.838;9.330;2023-06-10T02:11:25;97921.84;;;17.50;72.17
55604;BME280;41468;48.838;9.330;2023-06-10T02:13:53;97910.59;;;17.41;72.50
55604;BME280;41468;48.838;9.330;2023-06-10T02:16:20;97922.59;;;17.31;72.90
55604;BME280;41468;48.838;9.330;2023-06-10T02:18:47;97918.53;;;17.35;71.79
55604;BME280;41468;48.838;9.330;2023-06-10T02:21:15;97923.56;;;17.20;72.20
55604;BME280;41468;48.838;9.330;2023-06-10T02:23:42;97921.66;;;17.17;72.93
55604;BME280;41468;48.838;9.330;2023-06-10T02:26:08;97922.50;;;17.14;73.32
55604;BME280;41468;48.838;9.330;2023-06-10T02:28:35;97919.28;;;17.16;73.33
55604;BME280;41468;48.838;9.330;2023-06-10T02:31:02;97919.72;;;17.14;73.72
55604;BME280;41468;48.838;9.330;2023-06-10T02:33:29;97920.69;;;17.28;72.41
55604;BME280;41468;48.838;9.330;2023-06-10T02:35:56;97929.34;;;17.06;73.70
55604;BME280;41468;48.838;9.330;2023-06-10T02:38:22;97923.69;;;17.13;73.52
55604;BME280;41468;48.838;9.330;2023-06-10T02:40:59;97931.25;;;17.09;74.52
55604;BME280;41468;48.838;9.330;2023-06-10T02:43:27;97940.38;;;17.06;74.53
55604;BME280;41468;48.838;9.330;2023-06-10T02:45:54;97937.28;;;17.00;75.04
55604;BME280;41468;48.838;9.330;2023-06-10T02:48:40;97939.13;;;16.84;76.13
55604;BME280;41468;48.838;9.330;2023-06-10T02:51:13;97943.50;;;16.81;75.86
55604;BME280;41468;48.838;9.330;2023-06-10T02:53:39;97947.88;;;16.78;76.14
55604;BME280;41468;48.838;9.330;2023-06-10T02:56:06;97941.59;;;16.78;75.68
55604;BME280;41468;48.838;9.330;2023-06-10T02:58:33;97954.69;;;16.70;76.38
55604;BME280;41468;48.838;9.330;2023-06-10T03:01:00;97941.78;;;16.64;76.69
55604;BME280;41468;48.838;9.330;2023-06-10T03:03:27;97939.41;;;16.66;76.45
55604;BME280;41468;48.838;9.330;2023-06-10T03:05:58;97946.38;;;16.74;76.67
55604;BME280;41468;48.838;9.330;2023-06-10T03:08:36;97947.78;;;16.86;75.62
55604;BME280;41468;48.838;9.330;2023-06-10T03:11:04;97950.44;;;16.66;76.98
55604;BME280;41468;48.838;9.330;2023-06-10T03:13:31;97958.13;;;16.78;75.82
55604;BME280;41468;48.838;9.330;2023-06-10T03:15:58;97962.53;;;16.45;77.67
55604;BME280;41468;48.838;9.330;2023-06-10T03:18:26;97956.66;;;16.43;78.75
55604;BME280;41468;48.838;9.330;2023-06-10T03:20:56;97958.19;;;16.47;78.27
55604;BME280;41468;48.838;9.330;2023-06-10T03:23:24;97951.78;;;16.54;77.73
55604;BME280;41468;48.838;9.330;2023-06-10T03:25:50;97962.53;;;16.45;78.32
55604;BME280;41468;48.838;9.330;2023-06-10T03:28:17;97962.63;;;16.38;79.02
55604;BME280;41468;48.838;9.330;2023-06-10T03:30:44;97967.88;;;16.28;79.63
55604;BME280;41468;48.838;9.330;2023-06-10T03:33:11;97962.22;;;16.39;78.98
55604;BME280;41468;48.838;9.330;2023-06-10T03:35:38;97972.09;;;16.37;79.04
55604;BME280;41468;48.838;9.330;2023-06-10T03:38:05;97978.53;;;16.26;79.52
55604;BME280;41468;48.838;9.330;2023-06-10T03:40:31;97983.28;;;16.22;79.72
55604;BME280;41468;48.838;9.330;2023-06-10T03:43:00;97975.09;;;16.19;80.33
55604;BME280;41468;48.838;9.330;2023-06-10T03:45:27;97978.72;;;16.43;78.95
55604;BME280;41468;48.838;9.330;2023-06-10T03:47:55;97980.91;;;16.24;80.23
55604;BME280;41468;48.838;9.330;2023-06-10T03:50:33;97981.88;;;16.10;80.42
55604;BME280;41468;48.838;9.330;2023-06-10T03:53:00;97981.81;;;16.14;80.22
55604;BME280;41468;48.838;9.330;2023-06-10T03:55:27;97983.44;;;16.11;80.36
55604;BME280;41468;48.838;9.330;2023-06-10T03:57:54;97986.78;;;16.26;80.18
55604;BME280;41468;48.838;9.330;2023-06-10T04:00:21;97991.41;;;16.37;79.86
55604;BME280;41468;48.838;9.330;2023-06-10T04:02:48;97987.19;;;16.25;81.21
55604;BME280;41468;48.838;9.330;2023-06-10T04:05:19;97984.88;;;16.23;81.62
55604;BME280;41468;48.838;9.330;2023-06-10T04:07:48;97981.78;;;16.18;82.40
55604;BME280;41468;48.838;9.330;2023-06-10T04:10:15;97976.19;;;16.25;81.74
55604;BME280;41468;48.838;9.330;2023-06-10T04:12:42;97988.78;;;16.26;81.83
55604;BME280;41468;48.838;9.330;2023-06-10T04:15:09;97987.31;;;16.18;82.36
55604;BME280;41468;48.838;9.330;2023-06-10T04:17:37;97993.53;;;16.22;82.78
55604;BME280;41468;48.838;9.330;2023-06-10T04:20:04;97991.56;;;16.22;83.21
55604;BME280;41468;48.838;9.330;2023-06-10T04:22:34;97992.34;;;16.23;83.57
55604;BME280;41468;48.838;9.330;2023-06-10T04:25:01;97993.72;;;16.07;83.94
55604;BME280;41468;48.838;9.330;2023-06-10T04:27:28;97992.13;;;16.06;84.13
55604;BME280;41468;48.838;9.330;2023-06-10T04:29:55;97994.44;;;16.11;84.12
55604;BME280;41468;48.838;9.330;2023-06-10T04:32:22;97995.13;;;16.19;83.36
55604;BME280;41468;48.838;9.330;2023-06-10T04:34:49;97999.75;;;16.29;83.67
55604;BME280;41468;48.838;9.330;2023-06-10T04:37:16;98000.13;;;16.31;83.86
55604;BME280;41468;48.838;9.330;2023-06-10T04:39:42;98001.28;;;16.30;85.08
55604;BME280;41468;48.838;9.330;2023-06-10T04:42:09;98004.28;;;16.43;84.89
55604;BME280;41468;48.838;9.330;2023-06-10T04:44:36;98009.19;;;16.59;83.87
55604;BME280;41468;48.838;9.330;2023-06-10T04:47:03;98015.44;;;16.63;83.80
55604;BME280;41468;48.838;9.330;2023-06-10T04:49:30;98007.19;;;16.60;84.41
55604;BME280;41468;48.838;9.330;2023-06-10T04:51:57;98011.72;;;16.73;83.56
55604;BME280;41468;48.838;9.330;2023-06-10T04:54:29;98014.34;;;16.84;83.84
55604;BME280;41468;48.838;9.330;2023-06-10T04:56:55;98004.06;;;16.88;84.10
55604;BME280;41468;48.838;9.330;2023-06-10T04:59:22;98009.63;;;17.12;82.48
55604;BME280;41468;48.838;9.330;2023-06-10T05:01:49;98005.88;;;17.22;83.25
55604;BME280;41468;48.838;9.330;2023-06-10T05:04:16;98016.22;;;17.41;81.91
55604;BME280;41468;48.838;9.330;2023-06-10T05:06:42;98023.69;;;17.64;81.33
55604;BME280;41468;48.838;9.330;2023-06-10T05:09:09;98017.47;;;17.84;80.12
55604;BME280;41468;48.838;9.330;2023-06-10T05:11:36;98013.50;;;18.05;77.88
55604;BME280;41468;48.838;9.330;2023-06-10T05:14:03;98013.72;;;18.34;76.42
55604;BME280;41468;48.838;9.330;2023-06-10T05:16:30;98018.56;;;18.66;75.52
55604;BME280;41468;48.838;9.330;2023-06-10T05:18:57;98022.31;;;18.76;74.15
55604;BME280;41468;48.838;9.330;2023-06-10T05:21:24;98014.97;;;18.86;75.04
55604;BME280;41468;48.838;9.330;2023-06-10T05:23:50;98015.09;;;19.15;71.89
55604;BME280;41468;48.838;9.330;2023-06-10T05:26:17;98017.69;;;19.38;71.61
55604;BME280;41468;48.838;9.330;2023-06-10T05:28:44;98015.75;;;19.52;70.34
55604;BME280;41468;48.838;9.330;2023-06-10T05:31:11;98020.94;;;19.50;69.73
55604;BME280;41468;48.838;9.330;2023-06-10T05:33:39;98022.31;;;19.58;68.37
55604;BME280;41468;48.838;9.330;2023-06-10T05:36:05;98022.53;;;19.67;68.62
55604;BME280;41468;48.838;9.330;2023-06-10T05:38:32;98027.97;;;19.71;69.42
55604;BME280;41468;48.838;9.330;2023-06-10T05:40:59;98022.84;;;19.85;67.36
55604;BME280;41468;48.838;9.330;2023-06-10T05:43:31;98028.03;;;20.13;66.50
55604;BME280;41468;48.838;9.330;2023-06-10T05:45:58;98023.59;;;20.15;66.79
55604;BME280;41468;48.838;9.330;2023-06-10T05:48:25;98032.25;;;20.17;65.16
55604;BME280;41468;48.838;9.330;2023-06-10T05:50:51;98030.69;;;20.16;65.66
55604;BME280;41468;48.838;9.330;2023-06-10T05:53:18;98032.53;;;20.36;65.90
55604;BME280;41468;48.838;9.330;2023-06-10T05:55:46;98035.03;;;20.59;63.08
55604;BME280;41468;48.838;9.330;2023-06-10T05:58:13;98032.63;;;20.32;63.90
55604;BME280;41468;48.838;9.330;2023-06-10T06:00:40;98035.81;;;20.60;64.32
55604;BME280;41468;48.838;9.330;2023-06-10T06:03:07;98044.28;;;20.69;63.74
55604;BME280;41468;48.838;9.330;2023-06-10T06:05:37;98036.38;;;20.67;63.11
55604;BME280;41468;48.838;9.330;2023-06-10T06:08:05;98038.94;;;20.87;63.02
55604;BME280;41468;48.838;9.330;2023-06-10T06:10:32;98036.41;;;20.93;63.24
55604;BME280;41468;48.838;9.330;2023-06-10T06:13:00;98036.72;;;21.08;63.50
55604;BME280;41468;48.838;9.330;2023-06-10T06:15:27;98039.06;;;21.09;65.26
55604;BME280;41468;48.838;9.330;2023-06-10T06:17:54;98037.06;;;21.23;64.35
55604;BME280;41468;48.838;9.330;2023-06-10T06:20:32;98042.72;;;21.45;62.07
55604;BME280;41468;48.838;9.330;2023-06-10T06:22:59;98046.13;;;21.61;61.49
55604;BME280;41468;48.838;9.330;2023-06-10T06:25:26;98038.19;;;21.73;60.57
55604;BME280;41468;48.838;9.330;2023-06-10T06:27:52;98037.72;;;21.87;61.19
55604;BME280;41468;48.838;9.330;2023-06-10T06:30:19;98035.94;;;21.80;61.54
55604;BME280;41468;48.838;9.330;2023-06-10T06:32:46;98039.97;;;22.01;61.00
55604;BME280;41468;48.838;9.330;2023-06-10T06:35:13;98040.00;;;22.23;59.92
55604;BME280;41468;48.838;9.330;2023-06-10T06:37:40;98042.06;;;22.32;58.93
55604;BME280;41468;48.838;9.330;2023-06-10T06:40:07;98046.09;;;22.31;59.73
55604;BME280;41468;48.838;9.330;2023-06-10T06:42:34;98038.78;;;22.46;60.04
55604;BME280;41468;48.838;9.330;2023-06-10T06:45:01;98045.22;;;22.65;58.91
55604;BME280;41468;48.838;9.330;2023-06-10T06:47:32;98047.47;;;22.80;58.47
55604;BME280;41468;48.838;9.330;2023-06-10T06:50:04;98044.84;;;22.85;58.02
55604;BME280;41468;48.838;9.330;2023-06-10T06:52:31;98045.25;;;22.97;57.80
55604;BME280;41468;48.838;9.330;2023-06-10T06:54:57;98042.34;;;23.09;56.92
55604;BME280;41468;48.838;9.330;2023-06-10T06:57:24;98045.66;;;23.26;57.05
55604;BME280;41468;48.838;9.330;2023-06-10T06:59:51;98036.09;;;23.36;55.88
55604;BME280;41468;48.838;9.330;2023-06-10T07:02:18;98040.22;;;23.23;58.69
55604;BME280;41468;48.838;9.330;2023-06-10T07:04:45;98033.63;;;23.38;57.39
55604;BME280;41468;48.838;9.330;2023-06-10T07:07:15;98038.78;;;23.68;56.29
55604;BME280;41468;48.838;9.330;2023-06-10T07:09:42;98035.34;;;23.64;56.74
55604;BME280;41468;48.838;9.330;2023-06-10T07:12:09;98035.88;;;23.71;55.26
55604;BME280;41468;48.838;9.330;2023-06-10T07:14:36;98043.28;;;23.74;55.71
55604;BME280;41468;48.838;9.330;2023-06-10T07:17:03;98042.53;;;24.01;55.43
55604;BME280;41468;48.838;9.330;2023-06-10T07:19:30;98046.25;;;24.26;55.59
55604;BME280;41468;48.838;9.330;2023-06-10T07:21:57;98043.44;;;24.44;54.52
55604;BME280;41468;48.838;9.330;2023-06-10T07:24:23;98045.75;;;24.55;56.70
55604;BME280;41468;48.838;9.330;2023-06-10T07:26:50;98042.78;;;24.68;53.60
55604;BME280;41468;48.838;9.330;2023-06-10T07:29:17;98040.38;;;24.94;52.77
55604;BME280;41468;48.838;9.330;2023-06-10T07:31:44;98039.22;;;25.10;51.60
55604;BME280;41468;48.838;9.330;2023-06-10T07:34:15;98040.50;;;25.33;51.48
55604;BME280;41468;48.838;9.330;2023-06-10T07:36:42;98034.34;;;25.29;51.56
55604;BME280;41468;48.838;9.330;2023-06-10T07:39:08;98038.13;;;25.17;52.78
55604;BME280;41468;48.838;9.330;2023-06-10T07:41:36;98033.50;;;25.38;50.70
55604;BME280;41468;48.838;9.330;2023-06-10T07:44:03;98033.31;;;25.17;51.51
55604;BME280;41468;48.838;9.330;2023-06-10T07:46:30;98028.66;;;25.47;53.20
55604;BME280;41468;48.838;9.330;2023-06-10T07:48:57;98038.75;;;25.69;52.80
55604;BME280;41468;48.838;9.330;2023-06-10T07:51:28;98026.72;;;25.77;52.15
55604;BME280;41468;48.838;9.330;2023-06-10T07:53:55;98032.38;;;25.92;50.21
55604;BME280;41468;48.838;9.330;2023-06-10T07:56:22;98038.53;;;26.20;51.30
55604;BME280;41468;48.838;9.330;2023-06-10T07:58:49;98029.03;;;26.03;49.57
55604;BME280;41468;48.838;9.330;2023-06-10T08:01:15;98038.41;;;26.15;47.41
55604;BME280;41468;48.838;9.330;2023-06-10T08:03:42;98041.66;;;26.67;48.13
55604;BME280;41468;48.838;9.330;2023-06-10T08:06:10;98039.03;;;26.78;48.41
55604;BME280;41468;48.838;9.330;2023-06-10T08:08:38;98030.44;;;26.82;47.93
55604;BME280;41468;48.838;9.330;2023-06-10T08:11:12;98030.25;;;27.00;47.10
55604;BME280;41468;48.838;9.330;2023-06-10T08:13:38;98033.94;;;26.62;46.16
55604;BME280;41468;48.838;9.330;2023-06-10T08:16:06;98029.38;;;26.64;46.29
55604;BME280;41468;48.838;9.330;2023-06-10T08:18:34;98024.53;;;26.35;46.56
55604;BME280;41468;48.838;9.330;2023-06-10T08:21:00;98022.81;;;26.82;47.27
55604;BME280;41468;48.838;9.330;2023-06-10T08:23:27;98016.31;;;27.06;46.85
55604;BME280;41468;48.838;9.330;2023-06-10T08:25:54;98017.25;;;27.18;45.98
55604;BME280;41468;48.838;9.330;2023-06-10T08:28:32;98016.66;;;27.28;45.55
55604;BME280;41468;48.838;9.330;2023-06-10T08:30:58;98020.59;;;27.37;44.73
55604;BME280;41468;48.838;9.330;2023-06-10T08:33:25;98017.25;;;27.18;43.58
55604;BME280;41468;48.838;9.330;2023-06-10T08:35:52;98024.28;;;27.28;44.19
55604;BME280;41468;48.838;9.330;2023-06-10T08:38:19;98022.47;;;27.10;43.98
55604;BME280;41468;48.838;9.330;2023-06-10T08:40:46;98029.34;;;26.94;44.77
55604;BME280;41468;48.838;9.330;2023-06-10T08:43:21;98019.94;;;27.27;44.28
55604;BME280;41468;48.838;9.330;2023-06-10T08:45:49;98019.13;;;27.41;44.56
55604;BME280;41468;48.838;9.330;2023-06-10T08:48:19;98018.53;;;27.37;44.22
55604;BME280;41468;48.838;9.330;2023-06-10T08:50:47;98020.66;;;27.42;43.49
55604;BME280;41468;48.838;9.330;2023-06-10T08:53:18;98022.47;;;27.10;45.07
55604;BME280;41468;48.838;9.330;2023-06-10T08:55:50;98023.44;;;27.07;44.72
55604;BME280;41468;48.838;9.330;2023-06-10T08:58:19;98018.53;;;27.37;44.11
55604;BME280;41468;48.838;9.330;2023-06-10T09:00:46;98010.69;;;27.06;44.69
55604;BME280;41468;48.838;9.330;2023-06-10T09:03:18;98013.31;;;27.45;44.41
55604;BME280;41468;48.838;9.330;2023-06-10T09:05:45;98006.22;;;27.70;44.86
55604;BME280;41468;48.838;9.330;2023-06-10T09:08:12;98010.91;;;27.58;43.78
55604;BME280;41468;48.838;9.330;2023-06-10T09:10:40;98005.31;;;26.87;43.97
55604;BME280;41468;48.838;9.330;2023-06-10T09:13:07;98009.81;;;27.00;44.85
55604;BME280;41468;48.838;9.330;2023-06-10T09:15:33;98005.25;;;27.52;44.40
55604;BME280;41468;48.838;9.330;2023-06-10T09:18:00;98001.91;;;27.89;42.19
55604;BME280;41468;48.838;9.330;2023-06-10T09:20:28;98007.84;;;27.76;43.03
55604;BME280;41468;48.838;9.330;2023-06-10T09:22:55;98008.25;;;28.10;42.07
55604;BME280;41468;48.838;9.330;2023-06-10T09:25:35;98006.47;;;28.39;42.12
55604;BME280;41468;48.838;9.330;2023-06-10T09:28:03;98007.41;;;28.51;41.42
55604;BME280;41468;48.838;9.330;2023-06-10T09:30:31;98003.34;;;28.05;41.84
55604;BME280;41468;48.838;9.330;2023-06-10T09:33:01;97999.16;;;27.54;43.75
55604;BME280;41468;48.838;9.330;2023-06-10T09:35:30;98002.91;;;27.30;44.11
55604;BME280;41468;48.838;9.330;2023-06-10T09:37:59;98001.38;;;27.29;43.82
55604;BME280;41468;48.838;9.330;2023-06-10T09:40:26;97996.72;;;27.82;43.40
55604;BME280;41468;48.838;9.330;2023-06-10T09:42:59;98003.88;;;28.09;41.62
55604;BME280;41468;48.838;9.330;2023-06-10T09:45:32;97984.19;;;28.30;40.24
55604;BME280;41468;48.838;9.330;2023-06-10T09:48:00;97993.19;;;28.66;39.96
55604;BME280;41468;48.838;9.330;2023-06-10T09:50:41;97991.03;;;29.13;39.45
55604;BME280;41468;48.838;9.330;2023-06-10T09:53:08;97988.84;;;28.96;40.04
55604;BME280;41468;48.838;9.330;2023-06-10T09:55:40;97987.03;;;28.99;39.09
55604;BME280;41468;48.838;9.330;2023-06-10T09:58:07;97994.16;;;29.26;39.29
55604;BME280;41468;48.838;9.330;2023-06-10T10:00:34;97991.19;;;29.52;39.74
55604;BME280;41468;48.838;9.330;2023-06-10T10:03:08;97989.53;;;29.71;38.96
55604;BME280;41468;48.838;9.330;2023-06-10T10:05:34;97993.78;;;29.56;40.09
55604;BME280;41468;48.838;9.330;2023-06-10T10:08:01;97993.09;;;29.18;40.45
55604;BME280;41468;48.838;9.330;2023-06-10T10:10:28;97981.47;;;28.67;40.48
55604;BME280;41468;48.838;9.330;2023-06-10T10:12:56;97983.72;;;28.37;41.94
55604;BME280;41468;48.838;9.330;2023-06-10T10:15:25;97983.81;;;28.16;42.86
55604;BME280;41468;48.838;9.330;2023-06-10T10:20:29;97981.38;;;29.25;40.91
55604;BME280;41468;48.838;9.330;2023-06-10T10:22:58;97976.34;;;29.40;40.33
55604;BME280;41468;48.838;9.330;2023-06-10T10:25:29;97976.47;;;28.82;41.10
55604;BME280;41468;48.838;9.330;2023-06-10T10:28:13;97968.28;;;28.47;42.42
55604;BME280;41468;48.838;9.330;2023-06-10T10:30:53;97962.56;;;28.10;42.90
55604;BME280;41468;48.838;9.330;2023-06-10T10:34:00;97971.53;;;27.67;43.47
55604;BME280;41468;48.838;9.330;2023-06-10T10:36:28;97975.16;;;27.53;43.81
55604;BME280;41468;48.838;9.330;2023-06-10T10:38:56;97968.53;;;27.15;44.74
55604;BME280;41468;48.838;9.330;2023-06-10T10:41:24;97970.06;;;27.16;43.92
55604;BME280;41468;48.838;9.330;2023-06-10T10:43:53;97970.44;;;26.88;44.95
55604;BME280;41468;48.838;9.330;2023-06-10T10:46:20;97973.06;;;27.27;44.59
55604;BME280;41468;48.838;9.330;2023-06-10T10:48:52;97978.22;;;27.14;44.21
55604;BME280;41468;48.838;9.330;2023-06-10T10:51:19;97969.91;;;27.61;42.83
55604;BME280;41468;48.838;9.330;2023-06-10T10:54:09;97966.41;;;27.45;42.65
55604;BME280;41468;48.838;9.330;2023-06-10T10:56:36;97967.25;;;27.51;43.37
55604;BME280;41468;48.838;9.330;2023-06-10T10:59:04;97968.53;;;27.30;42.77
55604;BME280;41468;48.838;9.330;2023-06-10T11:01:42;97956.50;;;27.29;42.70
55604;BME280;41468;48.838;9.330;2023-06-10T11:04:12;97952.50;;;27.16;44.17
55604;BME280;41468;48.838;9.330;2023-06-10T11:06:52;97955.88;;;27.40;42.66
55604;BME280;41468;48.838;9.330;2023-06-10T11:09:26;97958.47;;;27.85;42.36
55604;BME280;41468;48.838;9.330;2023-06-10T11:11:56;97959.03;;;27.68;42.53
55604;BME280;41468;48.838;9.330;2023-06-10T11:14:28;97952.22;;;27.75;42.52
55604;BME280;41468;48.838;9.330;2023-06-10T11:16:58;97941.41;;;28.40;40.90
55604;BME280;41468;48.838;9.330;2023-06-10T11:19:36;97937.16;;;28.88;40.73
55604;BME280;41468;48.838;9.330;2023-06-10T11:22:06;97943.34;;;28.92;40.14
55604;BME280;41468;48.838;9.330;2023-06-10T11:24:33;97951.50;;;28.58;41.05
55604;BME280;41468;48.838;9.330;2023-06-10T11:27:19;97942.84;;;28.56;40.68
55604;BME280;41468;48.838;9.330;2023-06-10T11:32:31;97950.91;;;27.70;41.75
55604;BME280;41468;48.838;9.330;2023-06-10T11:34:59;97940.00;;;27.52;42.41
55604;BME280;41468;48.838;9.330;2023-06-10T11:37:27;97944.97;;;27.42;43.30
55604;BME280;41468;48.838;9.330;2023-06-10T11:39:54;97949.38;;;27.28;42.67
55604;BME280;41468;48.838;9.330;2023-06-10T11:42:22;97947.34;;;26.94;41.82
55604;BME280;41468;48.838;9.330;2023-06-10T11:44:50;97938.41;;;27.10;43.38
55604;BME280;41468;48.838;9.330;2023-06-10T11:47:18;97937.16;;;27.72;42.20
55604;BME280;41468;48.838;9.330;2023-06-10T11:49:49;97930.81;;;28.24;41.31
55604;BME280;41468;48.838;9.330;2023-06-10T11:52:30;97931.13;;;28.32;41.46
55604;BME280;41468;48.838;9.330;2023-06-10T11:54:59;97930.38;;;28.63;40.92
55604;BME280;41468;48.838;9.330;2023-06-10T11:57:25;97918.69;;;29.08;38.98
55604;BME280;41468;48.838;9.330;2023-06-10T11:59:52;97921.31;;;29.28;38.79
55604;BME280;41468;48.838;9.330;2023-06-10T12:02:19;97926.59;;;29.09;39.30
55604;BME280;41468;48.838;9.330;2023-06-10T12:04:46;97925.00;;;29.02;39.31
55604;BME280;41468;48.838;9.330;2023-06-10T12:07:19;97920.47;;;28.73;37.70
55604;BME280;41468;48.838;9.330;2023-06-10T12:09:46;97924.34;;;28.76;38.78
55604;BME280;41468;48.838;9.330;2023-06-10T12:12:19;97920.31;;;28.88;38.90
55604;BME280;41468;48.838;9.330;2023-06-10T12:14:57;97918.25;;;29.26;38.64
55604;BME280;41468;48.838;9.330;2023-06-10T12:17:37;97916.53;;;29.40;38.45
55604;BME280;41468;48.838;9.330;2023-06-10T12:20:07;97914.84;;;29.70;39.59
55604;BME280;41468;48.838;9.330;2023-06-10T12:22:42;97921.38;;;29.39;37.53
55604;BME280;41468;48.838;9.330;2023-06-10T12:25:10;97918.69;;;29.08;38.44
55604;BME280;41468;48.838;9.330;2023-06-10T12:27:40;97917.31;;;28.97;38.90
55604;BME280;41468;48.838;9.330;2023-06-10T12:30:22;97917.91;;;28.38;38.50
55604;BME280;41468;48.838;9.330;2023-06-10T12:32:50;97917.06;;;28.00;38.82
55604;BME280;41468;48.838;9.330;2023-06-10T12:35:18;97919.34;;;27.75;39.61
55604;BME280;41468;48.838;9.330;2023-06-10T12:38:00;97913.59;;;27.85;39.60
55604;BME280;41468;48.838;9.330;2023-06-10T12:40:37;97913.75;;;27.75;39.99
55604;BME280;41468;48.838;9.330;2023-06-10T12:43:07;97916.25;;;27.73;39.50
55604;BME280;41468;48.838;9.330;2023-06-10T12:45:36;97919.94;;;28.06;38.84
55604;BME280;41468;48.838;9.330;2023-06-10T12:48:23;97911.66;;;28.54;37.94
55604;BME280;41468;48.838;9.330;2023-06-10T12:50:54;97907.50;;;28.81;36.74
55604;BME280;41468;48.838;9.330;2023-06-10T12:53:22;97907.94;;;29.06;37.74
55604;BME280;41468;48.838;9.330;2023-06-10T12:55:55;97885.34;;;29.43;36.64
55604;BME280;41468;48.838;9.330;2023-06-10T12:58:23;97900.88;;;29.27;36.79
55604;BME280;41468;48.838;9.330;2023-06-10T13:00:49;97909.91;;;29.00;38.63
55604;BME280;41468;48.838;9.330;2023-06-10T13:03:19;97911.16;;;28.56;38.83
55604;BME280;41468;48.838;9.330;2023-06-10T13:05:47;97909.56;;;28.17;38.91
55604;BME280;41468;48.838;9.330;2023-06-10T13:08:14;97904.94;;;27.88;40.34
55604;BME280;41468;48.838;9.330;2023-06-10T13:10:40;97911.13;;;27.46;39.43
55604;BME280;41468;48.838;9.330;2023-06-10T13:13:08;97905.44;;;27.40;41.08
55604;BME280;41468;48.838;9.330;2023-06-10T13:15:36;97895.00;;;27.41;41.72
55604;BME280;41468;48.838;9.330;2023-06-10T13:18:09;97894.66;;;27.33;41.06
55604;BME280;41468;48.838;9.330;2023-06-10T13:20:36;97890.22;;;27.26;40.24
55604;BME280;41468;48.838;9.330;2023-06-10T13:23:03;97885.69;;;27.75;39.68
55604;BME280;41468;48.838;9.330;2023-06-10T13:25:29;97889.91;;;28.17;38.62
55604;BME280;41468;48.838;9.330;2023-06-10T13:27:56;97877.53;;;28.61;38.50
55604;BME280;41468;48.838;9.330;2023-06-10T13:30:24;97885.97;;;29.04;38.50
55604;BME280;41468;48.838;9.330;2023-06-10T13:32:50;97882.44;;;28.72;37.82
55604;BME280;41468;48.838;9.330;2023-06-10T13:35:17;97877.69;;;28.52;38.69